sensor_id;sensor_type;location;lat;lon;timestamp;P1;durP1;ratioP1;P2;durP2;ratioP2
34978;SDS011;21185;50.978;13.720;2023-11-19T00:01:49;11.80;;;6.15;;
34978;SDS011;21185;50.978;13.720;2023-11-19T00:06:52;12.43;;;5.72;;
34978;SDS011;21185;50.978;13.720;2023-11-19T00:11:53;10.05;;;5.85;;
34978;SDS011;21185;50.978;13.720;2023-11-19T00:16:56;8.82;;;5.15;;
34978;SDS011;21185;50.978;13.720;2023-11-19T00:21:59;7.35;;;4.70;;
34978;SDS011;21185;50.978;13.720;2023-11-19T00:27:04;11.00;;;4.93;;
34978;SDS011;21185;50.978;13.720;2023-11-19T00:32:06;7.65;;;4.30;;
34978;SDS011;21185;50.978;13.720;2023-11-19T00:37:09;8.55;;;4.70;;
34978;SDS011;21185;50.978;13.720;2023-11-19T00:42:12;9.07;;;3.75;;
34978;SDS011;21185;50.978;13.720;2023-11-19T00:47:14;8.23;;;4.13;;
34978;SDS011;21185;50.978;13.720;2023-11-19T00:52:16;8.02;;;4.70;;
34978;SDS011;21185;50.978;13.720;2023-11-19T00:57:20;7.25;;;4.40;;
34978;SDS011;21185;50.978;13.720;2023-11-19T01:02:22;8.25;;;4.35;;
34978;SDS011;21185;50.978;13.720;2023-11-19T01:07:24;5.15;;;3.00;;
34978;SDS011;21185;50.978;13.720;2023-11-19T01:12:28;7.97;;;2.65;;
34978;SDS011;21185;50.978;13.720;2023-11-19T01:17:30;5.65;;;3.30;;
34978;SDS011;21185;50.978;13.720;2023-11-19T01:22:33;6.00;;;2.70;;
34978;SDS011;21185;50.978;13.720;2023-11-19T01:27:35;4.32;;;2.85;;
34978;SDS011;21185;50.978;13.720;2023-11-19T01:32:38;5.22;;;2.78;;
34978;SDS011;21185;50.978;13.720;2023-11-19T01:37:40;4.55;;;2.85;;
34978;SDS011;21185;50.978;13.720;2023-11-19T01:42:42;3.75;;;2.70;;
34978;SDS011;21185;50.978;13.720;2023-11-19T01:47:45;2.53;;;1.90;;
34978;SDS011;21185;50.978;13.720;2023-11-19T01:52:47;4.80;;;2.22;;
34978;SDS011;21185;50.978;13.720;2023-11-19T01:57:50;4.32;;;1.80;;
34978;SDS011;21185;50.978;13.720;2023-11-19T02:02:53;2.03;;;1.38;;
34978;SDS011;21185;50.978;13.720;2023-11-19T02:07:56;1.95;;;1.65;;
34978;SDS011;21185;50.978;13.720;2023-11-19T02:12:59;1.92;;;1.50;;
34978;SDS011;21185;50.978;13.720;2023-11-19T02:18:18;1.45;;;1.15;;
34978;SDS011;21185;50.978;13.720;2023-11-19T02:23:21;2.72;;;1.70;;
34978;SDS011;21185;50.978;13.720;2023-11-19T02:28:24;4.00;;;2.30;;
34978;SDS011;21185;50.978;13.720;2023-11-19T02:33:26;3.05;;;1.85;;
34978;SDS011;21185;50.978;13.720;2023-11-19T02:38:29;1.83;;;1.60;;
34978;SDS011;21185;50.978;13.720;2023-11-19T02:43:33;3.65;;;2.17;;
34978;SDS011;21185;50.978;13.720;2023-11-19T02:48:35;2.58;;;1.67;;
34978;SDS011;21185;50.978;13.720;2023-11-19T02:53:37;2.45;;;1.63;;
34978;SDS011;21185;50.978;13.720;2023-11-19T02:58:43;2.63;;;1.92;;
34978;SDS011;21185;50.978;13.720;2023-11-19T03:03:47;2.30;;;1.73;;
34978;SDS011;21185;50.978;13.720;2023-11-19T03:08:51;1.50;;;1.38;;
34978;SDS011;21185;50.978;13.720;2023-11-19T03:13:53;1.70;;;1.35;;
34978;SDS011;21185;50.978;13.720;2023-11-19T03:18:55;2.30;;;1.65;;
34978;SDS011;21185;50.978;13.720;2023-11-19T03:23:58;1.27;;;1.02;;
34978;SDS011;21185;50.978;13.720;2023-11-19T03:29:03;2.17;;;1.45;;
34978;SDS011;21185;50.978;13.720;2023-11-19T03:34:05;3.08;;;1.77;;
34978;SDS011;21185;50.978;13.720;2023-11-19T03:39:07;1.48;;;1.20;;
34978;SDS011;21185;50.978;13.720;2023-11-19T03:44:09;1.40;;;1.30;;
34978;SDS011;21185;50.978;13.720;2023-11-19T03:49:11;1.55;;;1.45;;
34978;SDS011;21185;50.978;13.720;2023-11-19T03:54:13;2.58;;;1.50;;
34978;SDS011;21185;50.978;13.720;2023-11-19T03:59:16;1.67;;;1.58;;
34978;SDS011;21185;50.978;13.720;2023-11-19T04:04:17;1.90;;;1.52;;
34978;SDS011;21185;50.978;13.720;2023-11-19T04:09:20;1.83;;;1.48;;
34978;SDS011;21185;50.978;13.720;2023-11-19T04:14:22;2.90;;;1.52;;
34978;SDS011;21185;50.978;13.720;2023-11-19T04:19:24;1.60;;;1.10;;
34978;SDS011;21185;50.978;13.720;2023-11-19T04:24:26;1.98;;;1.60;;
34978;SDS011;21185;50.978;13.720;2023-11-19T04:29:28;1.88;;;1.60;;
34978;SDS011;21185;50.978;13.720;2023-11-19T04:34:32;3.03;;;1.58;;
34978;SDS011;21185;50.978;13.720;2023-11-19T04:39:34;1.10;;;0.98;;
34978;SDS011;21185;50.978;13.720;2023-11-19T04:44:36;2.58;;;1.48;;
34978;SDS011;21185;50.978;13.720;2023-11-19T04:49:41;1.70;;;1.60;;
34978;SDS011;21185;50.978;13.720;2023-11-19T04:54:44;2.65;;;1.60;;
34978;SDS011;21185;50.978;13.720;2023-11-19T04:59:46;2.40;;;1.83;;
34978;SDS011;21185;50.978;13.720;2023-11-19T05:04:48;2.08;;;1.75;;
34978;SDS011;21185;50.978;13.720;2023-11-19T05:09:51;1.70;;;1.30;;
34978;SDS011;21185;50.978;13.720;2023-11-19T05:14:52;1.63;;;1.23;;
34978;SDS011;21185;50.978;13.720;2023-11-19T05:19:55;5.30;;;1.95;;
34978;SDS011;21185;50.978;13.720;2023-11-19T05:24:56;2.50;;;2.30;;
34978;SDS011;21185;50.978;13.720;2023-11-19T05:29:58;1.92;;;1.58;;
34978;SDS011;21185;50.978;13.720;2023-11-19T05:35:01;2.45;;;1.42;;
34978;SDS011;21185;50.978;13.720;2023-11-19T05:40:04;2.08;;;1.52;;
34978;SDS011;21185;50.978;13.720;2023-11-19T05:45:15;2.10;;;1.55;;
34978;SDS011;21185;50.978;13.720;2023-11-19T05:50:17;5.47;;;1.60;;
34978;SDS011;21185;50.978;13.720;2023-11-19T05:55:19;2.22;;;1.20;;
34978;SDS011;21185;50.978;13.720;2023-11-19T06:00:21;1.17;;;0.80;;
34978;SDS011;21185;50.978;13.720;2023-11-19T06:05:23;0.77;;;0.68;;
34978;SDS011;21185;50.978;13.720;2023-11-19T06:10:25;5.15;;;2.38;;
34978;SDS011;21185;50.978;13.720;2023-11-19T06:15:33;0.60;;;0.60;;
34978;SDS011;21185;50.978;13.720;2023-11-19T06:20:35;1.27;;;0.85;;
34978;SDS011;21185;50.978;13.720;2023-11-19T06:25:40;0.70;;;0.70;;
34978;SDS011;21185;50.978;13.720;2023-11-19T06:30:42;0.75;;;0.75;;
34978;SDS011;21185;50.978;13.720;2023-11-19T06:35:49;0.45;;;0.45;;
34978;SDS011;21185;50.978;13.720;2023-11-19T06:40:52;0.30;;;0.30;;
34978;SDS011;21185;50.978;13.720;2023-11-19T06:45:55;1.05;;;0.70;;
34978;SDS011;21185;50.978;13.720;2023-11-19T06:50:59;0.40;;;0.40;;
34978;SDS011;21185;50.978;13.720;2023-11-19T06:56:02;0.43;;;0.43;;
34978;SDS011;21185;50.978;13.720;2023-11-19T07:01:08;0.88;;;0.65;;
34978;SDS011;21185;50.978;13.720;2023-11-19T07:06:10;1.80;;;0.73;;
34978;SDS011;21185;50.978;13.720;2023-11-19T07:11:13;0.82;;;0.50;;
34978;SDS011;21185;50.978;13.720;2023-11-19T07:16:19;0.55;;;0.55;;
34978;SDS011;21185;50.978;13.720;2023-11-19T07:21:24;2.83;;;0.50;;
34978;SDS011;21185;50.978;13.720;2023-11-19T07:26:27;0.30;;;0.30;;
34978;SDS011;21185;50.978;13.720;2023-11-19T07:31:29;2.20;;;0.50;;
34978;SDS011;21185;50.978;13.720;2023-11-19T07:36:32;0.52;;;0.52;;
34978;SDS011;21185;50.978;13.720;2023-11-19T07:41:35;1.85;;;0.60;;
34978;SDS011;21185;50.978;13.720;2023-11-19T07:46:39;0.30;;;0.30;;
34978;SDS011;21185;50.978;13.720;2023-11-19T07:51:44;0.70;;;0.70;;
34978;SDS011;21185;50.978;13.720;2023-11-19T07:56:46;1.30;;;0.60;;
34978;SDS011;21185;50.978;13.720;2023-11-19T08:01:49;0.40;;;0.40;;
34978;SDS011;21185;50.978;13.720;2023-11-19T08:06:53;0.50;;;0.50;;
34978;SDS011;21185;50.978;13.720;2023-11-19T08:11:55;0.32;;;0.32;;
34978;SDS011;21185;50.978;13.720;2023-11-19T08:16:58;0.50;;;0.50;;
34978;SDS011;21185;50.978;13.720;2023-11-19T08:22:00;0.50;;;0.50;;
34978;SDS011;21185;50.978;13.720;2023-11-19T08:27:10;0.60;;;0.60;;
34978;SDS011;21185;50.978;13.720;2023-11-19T08:32:13;0.52;;;0.40;;
34978;SDS011;21185;50.978;13.720;2023-11-19T08:37:16;0.60;;;0.60;;
34978;SDS011;21185;50.978;13.720;2023-11-19T08:42:23;2.05;;;1.67;;
34978;SDS011;21185;50.978;13.720;2023-11-19T08:47:25;0.93;;;0.70;;
34978;SDS011;21185;50.978;13.720;2023-11-19T08:52:27;0.60;;;0.50;;
34978;SDS011;21185;50.978;13.720;2023-11-19T08:57:33;0.30;;;0.30;;
34978;SDS011;21185;50.978;13.720;2023-11-19T09:02:35;1.67;;;0.93;;
34978;SDS011;21185;50.978;13.720;2023-11-19T09:07:39;1.50;;;0.60;;
34978;SDS011;21185;50.978;13.720;2023-11-19T09:12:41;2.70;;;0.90;;
34978;SDS011;21185;50.978;13.720;2023-11-19T09:17:43;0.47;;;0.47;;
34978;SDS011;21185;50.978;13.720;2023-11-19T09:22:47;5.20;;;1.02;;
34978;SDS011;21185;50.978;13.720;2023-11-19T09:27:49;3.22;;;0.65;;
34978;SDS011;21185;50.978;13.720;2023-11-19T09:32:58;1.15;;;0.82;;
34978;SDS011;21185;50.978;13.720;2023-11-19T09:38:03;1.15;;;0.47;;
34978;SDS011;21185;50.978;13.720;2023-11-19T09:43:09;1.73;;;0.63;;
34978;SDS011;21185;50.978;13.720;2023-11-19T09:48:12;0.80;;;0.70;;
34978;SDS011;21185;50.978;13.720;2023-11-19T09:53:15;0.60;;;0.60;;
34978;SDS011;21185;50.978;13.720;2023-11-19T09:58:17;0.80;;;0.70;;
34978;SDS011;21185;50.978;13.720;2023-11-19T10:03:19;3.10;;;1.30;;
34978;SDS011;21185;50.978;13.720;2023-11-19T10:08:25;1.30;;;0.70;;
34978;SDS011;21185;50.978;13.720;2023-11-19T10:13:29;5.47;;;1.08;;
34978;SDS011;21185;50.978;13.720;2023-11-19T10:18:33;1.42;;;0.75;;
34978;SDS011;21185;50.978;13.720;2023-11-19T10:23:51;2.25;;;0.90;;
34978;SDS011;21185;50.978;13.720;2023-11-19T10:28:55;3.42;;;1.00;;
34978;SDS011;21185;50.978;13.720;2023-11-19T10:33:58;3.90;;;0.95;;
34978;SDS011;21185;50.978;13.720;2023-11-19T10:39:01;0.85;;;0.80;;
34978;SDS011;21185;50.978;13.720;2023-11-19T10:44:04;1.73;;;0.80;;
34978;SDS011;21185;50.978;13.720;2023-11-19T10:49:07;3.35;;;0.70;;
34978;SDS011;21185;50.978;13.720;2023-11-19T10:54:10;3.42;;;0.73;;
34978;SDS011;21185;50.978;13.720;2023-11-19T10:59:17;1.95;;;0.57;;
34978;SDS011;21185;50.978;13.720;2023-11-19T11:04:26;1.35;;;0.80;;
34978;SDS011;21185;50.978;13.720;2023-11-19T11:09:33;1.33;;;0.65;;
34978;SDS011;21185;50.978;13.720;2023-11-19T11:14:37;4.35;;;0.70;;
34978;SDS011;21185;50.978;13.720;2023-11-19T11:19:42;0.82;;;0.60;;
34978;SDS011;21185;50.978;13.720;2023-11-19T11:24:50;3.33;;;0.50;;
34978;SDS011;21185;50.978;13.720;2023-11-19T11:30:30;2.13;;;0.70;;
34978;SDS011;21185;50.978;13.720;2023-11-19T11:36:04;0.65;;;0.50;;
34978;SDS011;21185;50.978;13.720;2023-11-19T11:51:57;3.70;;;0.75;;
34978;SDS011;21185;50.978;13.720;2023-11-19T12:02:20;2.05;;;0.75;;
34978;SDS011;21185;50.978;13.720;2023-11-19T12:07:24;4.97;;;1.02;;
34978;SDS011;21185;50.978;13.720;2023-11-19T12:12:27;7.05;;;1.48;;
34978;SDS011;21185;50.978;13.720;2023-11-19T12:17:36;8.93;;;1.13;;
34978;SDS011;21185;50.978;13.720;2023-11-19T12:22:41;2.63;;;1.23;;
34978;SDS011;21185;50.978;13.720;2023-11-19T12:27:44;3.95;;;1.70;;
34978;SDS011;21185;50.978;13.720;2023-11-19T12:32:47;4.60;;;1.25;;
34978;SDS011;21185;50.978;13.720;2023-11-19T12:37:51;8.00;;;1.60;;
34978;SDS011;21185;50.978;13.720;2023-11-19T12:42:55;4.50;;;1.48;;
34978;SDS011;21185;50.978;13.720;2023-11-19T12:48:07;3.58;;;1.27;;
34978;SDS011;21185;50.978;13.720;2023-11-19T12:53:13;8.13;;;2.03;;
34978;SDS011;21185;50.978;13.720;2023-11-19T12:58:29;3.53;;;1.55;;
34978;SDS011;21185;50.978;13.720;2023-11-19T13:03:34;4.35;;;1.05;;
34978;SDS011;21185;50.978;13.720;2023-11-19T13:08:38;4.85;;;1.33;;
34978;SDS011;21185;50.978;13.720;2023-11-19T13:13:57;8.35;;;1.20;;
34978;SDS011;21185;50.978;13.720;2023-11-19T13:19:07;6.35;;;1.52;;
34978;SDS011;21185;50.978;13.720;2023-11-19T13:24:10;13.85;;;3.85;;
34978;SDS011;21185;50.978;13.720;2023-11-19T13:29:12;2.17;;;0.82;;
34978;SDS011;21185;50.978;13.720;2023-11-19T13:34:15;8.95;;;1.70;;
34978;SDS011;21185;50.978;13.720;2023-11-19T13:39:17;10.13;;;1.45;;
34978;SDS011;21185;50.978;13.720;2023-11-19T13:44:25;8.52;;;1.25;;
34978;SDS011;21185;50.978;13.720;2023-11-19T13:49:26;4.85;;;1.42;;
34978;SDS011;21185;50.978;13.720;2023-11-19T13:54:30;7.07;;;2.17;;
34978;SDS011;21185;50.978;13.720;2023-11-19T13:59:32;4.30;;;1.67;;
34978;SDS011;21185;50.978;13.720;2023-11-19T14:04:34;5.50;;;1.30;;
34978;SDS011;21185;50.978;13.720;2023-11-19T14:09:37;9.00;;;1.75;;
34978;SDS011;21185;50.978;13.720;2023-11-19T14:14:39;7.40;;;1.17;;
34978;SDS011;21185;50.978;13.720;2023-11-19T14:19:41;7.05;;;1.45;;
34978;SDS011;21185;50.978;13.720;2023-11-19T14:24:45;6.38;;;1.42;;
34978;SDS011;21185;50.978;13.720;2023-11-19T14:29:47;4.68;;;1.30;;
34978;SDS011;21185;50.978;13.720;2023-11-19T14:34:49;8.25;;;1.25;;
34978;SDS011;21185;50.978;13.720;2023-11-19T14:39:51;6.78;;;1.33;;
34978;SDS011;21185;50.978;13.720;2023-11-19T14:44:53;6.60;;;1.23;;
34978;SDS011;21185;50.978;13.720;2023-11-19T14:49:56;10.35;;;1.98;;
34978;SDS011;21185;50.978;13.720;2023-11-19T14:54:59;1.30;;;0.77;;
34978;SDS011;21185;50.978;13.720;2023-11-19T15:00:01;6.70;;;1.30;;
34978;SDS011;21185;50.978;13.720;2023-11-19T15:05:10;14.52;;;2.35;;
34978;SDS011;21185;50.978;13.720;2023-11-19T15:10:13;7.18;;;1.20;;
34978;SDS011;21185;50.978;13.720;2023-11-19T15:15:15;5.15;;;2.13;;
34978;SDS011;21185;50.978;13.720;2023-11-19T15:20:37;12.80;;;1.63;;
34978;SDS011;21185;50.978;13.720;2023-11-19T15:25:39;4.53;;;1.35;;
34978;SDS011;21185;50.978;13.720;2023-11-19T15:30:41;11.52;;;1.58;;
34978;SDS011;21185;50.978;13.720;2023-11-19T15:35:43;4.88;;;1.45;;
34978;SDS011;21185;50.978;13.720;2023-11-19T15:40:45;8.10;;;1.73;;
34978;SDS011;21185;50.978;13.720;2023-11-19T15:45:47;10.30;;;1.77;;
34978;SDS011;21185;50.978;13.720;2023-11-19T15:50:50;9.73;;;3.33;;
34978;SDS011;21185;50.978;13.720;2023-11-19T15:55:52;6.47;;;1.23;;
34978;SDS011;21185;50.978;13.720;2023-11-19T16:00:54;8.02;;;1.95;;
34978;SDS011;21185;50.978;13.720;2023-11-19T16:05:57;11.45;;;2.00;;
34978;SDS011;21185;50.978;13.720;2023-11-19T16:11:10;10.98;;;2.60;;
34978;SDS011;21185;50.978;13.720;2023-11-19T16:16:15;11.18;;;2.13;;
34978;SDS011;21185;50.978;13.720;2023-11-19T16:21:17;4.95;;;1.92;;
34978;SDS011;21185;50.978;13.720;2023-11-19T16:26:19;7.63;;;1.63;;
34978;SDS011;21185;50.978;13.720;2023-11-19T16:31:23;7.60;;;2.63;;
34978;SDS011;21185;50.978;13.720;2023-11-19T16:36:25;12.10;;;1.35;;
34978;SDS011;21185;50.978;13.720;2023-11-19T16:41:27;7.32;;;1.42;;
34978;SDS011;21185;50.978;13.720;2023-11-19T16:46:42;4.22;;;1.05;;
34978;SDS011;21185;50.978;13.720;2023-11-19T16:51:45;2.63;;;1.10;;
34978;SDS011;21185;50.978;13.720;2023-11-19T16:56:49;13.50;;;1.67;;
34978;SDS011;21185;50.978;13.720;2023-11-19T17:01:51;4.38;;;1.38;;
34978;SDS011;21185;50.978;13.720;2023-11-19T17:06:53;12.75;;;1.83;;
34978;SDS011;21185;50.978;13.720;2023-11-19T17:11:55;2.70;;;1.73;;
34978;SDS011;21185;50.978;13.720;2023-11-19T17:16:57;10.63;;;2.67;;
34978;SDS011;21185;50.978;13.720;2023-11-19T17:21:59;7.82;;;1.67;;
34978;SDS011;21185;50.978;13.720;2023-11-19T17:27:02;14.70;;;1.70;;
34978;SDS011;21185;50.978;13.720;2023-11-19T17:32:05;6.63;;;2.45;;
34978;SDS011;21185;50.978;13.720;2023-11-19T17:37:08;10.07;;;1.40;;
34978;SDS011;21185;50.978;13.720;2023-11-19T17:42:16;9.52;;;2.10;;
34978;SDS011;21185;50.978;13.720;2023-11-19T17:47:19;11.52;;;2.28;;
34978;SDS011;21185;50.978;13.720;2023-11-19T17:52:22;10.75;;;1.80;;
34978;SDS011;21185;50.978;13.720;2023-11-19T17:57:25;6.82;;;2.25;;
34978;SDS011;21185;50.978;13.720;2023-11-19T18:02:28;9.85;;;2.72;;
34978;SDS011;21185;50.978;13.720;2023-11-19T18:07:33;5.93;;;1.38;;
34978;SDS011;21185;50.978;13.720;2023-11-19T18:12:35;7.82;;;1.42;;
34978;SDS011;21185;50.978;13.720;2023-11-19T18:17:38;11.77;;;2.28;;
34978;SDS011;21185;50.978;13.720;2023-11-19T18:22:44;9.23;;;1.90;;
34978;SDS011;21185;50.978;13.720;2023-11-19T18:27:48;3.42;;;1.40;;
34978;SDS011;21185;50.978;13.720;2023-11-19T18:32:50;7.82;;;1.80;;
34978;SDS011;21185;50.978;13.720;2023-11-19T18:37:53;6.32;;;1.52;;
34978;SDS011;21185;50.978;13.720;2023-11-19T18:42:55;0.65;;;0.47;;
34978;SDS011;21185;50.978;13.720;2023-11-19T18:47:58;15.45;;;3.40;;
34978;SDS011;21185;50.978;13.720;2023-11-19T18:53:01;4.75;;;1.30;;
34978;SDS011;21185;50.978;13.720;2023-11-19T18:58:04;7.90;;;1.48;;
34978;SDS011;21185;50.978;13.720;2023-11-19T19:03:09;8.82;;;2.25;;
34978;SDS011;21185;50.978;13.720;2023-11-19T19:08:15;8.25;;;1.75;;
34978;SDS011;21185;50.978;13.720;2023-11-19T19:13:18;9.90;;;3.63;;
34978;SDS011;21185;50.978;13.720;2023-11-19T19:18:21;6.78;;;2.42;;
34978;SDS011;21185;50.978;13.720;2023-11-19T19:23:25;9.27;;;3.15;;
34978;SDS011;21185;50.978;13.720;2023-11-19T19:28:27;4.80;;;1.05;;
34978;SDS011;21185;50.978;13.720;2023-11-19T19:33:29;10.02;;;1.75;;
34978;SDS011;21185;50.978;13.720;2023-11-19T19:38:31;6.88;;;1.10;;
34978;SDS011;21185;50.978;13.720;2023-11-19T19:43:34;3.85;;;1.27;;
34978;SDS011;21185;50.978;13.720;2023-11-19T19:48:36;7.70;;;1.13;;
34978;SDS011;21185;50.978;13.720;2023-11-19T19:53:38;12.82;;;1.75;;
34978;SDS011;21185;50.978;13.720;2023-11-19T19:58:40;10.18;;;1.38;;
34978;SDS011;21185;50.978;13.720;2023-11-19T20:03:43;7.80;;;1.38;;
34978;SDS011;21185;50.978;13.720;2023-11-19T20:08:46;4.72;;;1.15;;
34978;SDS011;21185;50.978;13.720;2023-11-19T20:13:51;6.07;;;2.47;;
34978;SDS011;21185;50.978;13.720;2023-11-19T20:18:55;7.20;;;1.00;;
34978;SDS011;21185;50.978;13.720;2023-11-19T20:23:57;6.30;;;1.05;;
34978;SDS011;21185;50.978;13.720;2023-11-19T20:29:00;5.57;;;1.45;;
34978;SDS011;21185;50.978;13.720;2023-11-19T20:34:05;5.70;;;1.17;;
34978;SDS011;21185;50.978;13.720;2023-11-19T20:39:08;4.35;;;1.50;;
34978;SDS011;21185;50.978;13.720;2023-11-19T20:44:10;7.50;;;1.10;;
34978;SDS011;21185;50.978;13.720;2023-11-19T20:49:13;5.38;;;2.35;;
34978;SDS011;21185;50.978;13.720;2023-11-19T20:54:15;5.38;;;0.82;;
34978;SDS011;21185;50.978;13.720;2023-11-19T20:59:17;4.68;;;0.98;;
34978;SDS011;21185;50.978;13.720;2023-11-19T21:04:20;6.05;;;1.38;;
34978;SDS011;21185;50.978;13.720;2023-11-19T21:09:23;2.35;;;1.52;;
34978;SDS011;21185;50.978;13.720;2023-11-19T21:14:26;6.32;;;1.58;;
34978;SDS011;21185;50.978;13.720;2023-11-19T21:19:28;2.42;;;0.95;;
34978;SDS011;21185;50.978;13.720;2023-11-19T21:24:33;4.50;;;1.55;;
34978;SDS011;21185;50.978;13.720;2023-11-19T21:29:35;3.25;;;1.67;;
34978;SDS011;21185;50.978;13.720;2023-11-19T21:34:37;9.02;;;2.28;;
34978;SDS011;21185;50.978;13.720;2023-11-19T21:39:41;6.50;;;0.90;;
34978;SDS011;21185;50.978;13.720;2023-11-19T21:44:43;5.18;;;1.73;;
34978;SDS011;21185;50.978;13.720;2023-11-19T21:49:45;7.20;;;1.65;;
34978;SDS011;21185;50.978;13.720;2023-11-19T21:54:47;8.07;;;1.55;;
34978;SDS011;21185;50.978;13.720;2023-11-19T21:59:50;6.47;;;1.13;;
34978;SDS011;21185;50.978;13.720;2023-11-19T22:04:52;4.15;;;0.95;;
34978;SDS011;21185;50.978;13.720;2023-11-19T22:09:55;9.07;;;1.33;;
34978;SDS011;21185;50.978;13.720;2023-11-19T22:14:57;4.35;;;1.33;;
34978;SDS011;21185;50.978;13.720;2023-11-19T22:19:59;5.35;;;1.55;;
34978;SDS011;21185;50.978;13.720;2023-11-19T22:25:01;8.63;;;3.22;;
34978;SDS011;21185;50.978;13.720;2023-11-19T22:30:04;3.65;;;0.98;;
34978;SDS011;21185;50.978;13.720;2023-11-19T22:35:07;3.35;;;0.93;;
34978;SDS011;21185;50.978;13.720;2023-11-19T22:40:10;4.93;;;1.20;;
34978;SDS011;21185;50.978;13.720;2023-11-19T22:45:13;3.60;;;1.05;;
34978;SDS011;21185;50.978;13.720;2023-11-19T22:50:17;3.78;;;0.90;;
34978;SDS011;21185;50.978;13.720;2023-11-19T22:55:19;6.15;;;1.33;;
34978;SDS011;21185;50.978;13.720;2023-11-19T23:00:21;6.07;;;1.30;;
34978;SDS011;21185;50.978;13.720;2023-11-19T23:05:30;3.78;;;1.33;;
34978;SDS011;21185;50.978;13.720;2023-11-19T23:10:34;4.80;;;1.45;;
34978;SDS011;21185;50.978;13.720;2023-11-19T23:15:36;7.57;;;1.05;;
34978;SDS011;21185;50.978;13.720;2023-11-19T23:20:38;5.13;;;1.33;;
34978;SDS011;21185;50.978;13.720;2023-11-19T23:25:41;3.40;;;0.80;;
34978;SDS011;21185;50.978;13.720;2023-11-19T23:30:44;4.68;;;1.15;;
34978;SDS011;21185;50.978;13.720;2023-11-19T23:35:46;6.07;;;1.25;;
34978;SDS011;21185;50.978;13.720;2023-11-19T23:40:48;4.57;;;2.00;;
34978;SDS011;21185;50.978;13.720;2023-11-19T23:45:50;7.53;;;1.33;;
34978;SDS011;21185;50.978;13.720;2023-11-19T23:50:53;4.70;;;1.35;;
34978;SDS011;21185;50.978;13.720;2023-11-19T23:55:59;13.73;;;2.50;;
